Cherry Hills Village, Colorado
Current Conditions -  °F | °C
As of 8:53 PM on Thursday 18 Dec 2014 (Local Time) from KAPA Reporting Station
Scattered Clouds Scattered Clouds  
Wind Chill: 29°   Ceiling: Unl
Heat Index: 29°   Visibility: 7mi
Dew Point: 25°   Wind: 3mph
Humidity: 85%   Direction: 230°SW
Pressure: 30.07"   Gusts: NA
Location:  39.6158°N, 104.874°W
Report Text: KAPA 190353Z 23003KT 7SM SCT075 SCT120 M02/M04 A3007 RMK AO2 SLP214 T10171039
Loading
Personal Weather Stations






























Interactive Weather Map New forecast layout! Learn more

10-Day Weather Forecast

Advertisements
Track Severe Weather on mobile